Time;durP1;ratioP1;P1;durP2;ratioP2;P2;SDS_P1;SDS_P2;PMS_P1;PMS_P2;Temp;Humidity;BMP_temperature;BMP_pressure;BME280_temperature;BME280_humidity;BME280_pressure;Samples;Min_cycle;Max_cycle;Signal;HPM_P1;HPM_P2
2022/04/14 00:00:05;;;;;;;16.00;9.30;;;6.90;53.40;;;;;;5073849;28;20039;-85
2022/04/14 00:02:30;;;;;;;17.48;8.70;;;6.80;53.40;;;;;;5092536;28;20029;-85
2022/04/14 00:04:56;;;;;;;18.80;10.05;;;6.80;53.60;;;;;;5092310;28;20381;-84
2022/04/14 00:07:22;;;;;;;12.70;8.30;;;6.70;53.80;;;;;;5092631;28;20032;-86
2022/04/14 00:09:48;;;;;;;17.60;9.65;;;6.70;54.10;;;;;;5092106;28;20035;-85
2022/04/14 00:12:14;;;;;;;15.32;8.75;;;6.60;54.10;;;;;;5092728;28;20052;-84
2022/04/14 00:14:39;;;;;;;12.88;9.27;;;6.60;54.30;;;;;;5092479;28;20024;-85
2022/04/14 00:17:06;;;;;;;13.95;8.60;;;6.60;54.40;;;;;;5094711;28;20047;-85
2022/04/14 00:19:33;;;;;;;16.55;8.73;;;6.50;54.60;;;;;;5096237;28;20053;-86
2022/04/14 00:21:58;;;;;;;16.83;8.52;;;6.50;54.70;;;;;;5096217;28;20097;-85
2022/04/14 00:24:24;;;;;;;11.80;8.48;;;6.50;54.90;;;;;;5077944;28;20032;-84
2022/04/14 00:26:50;;;;;;;13.95;8.52;;;6.40;55.00;;;;;;5096355;28;20406;-84
2022/04/14 00:29:15;;;;;;;13.57;8.70;;;6.30;55.10;;;;;;5095789;28;20036;-84
2022/04/14 00:31:41;;;;;;;17.38;8.75;;;6.20;55.30;;;;;;5096336;28;20028;-85
2022/04/14 00:34:06;;;;;;;12.73;7.65;;;6.20;55.40;;;;;;5077556;28;20055;-83
2022/04/14 00:36:35;;;;;;;14.80;8.73;;;6.10;55.70;;;;;;5077980;28;20028;-84
2022/04/14 00:39:01;;;;;;;21.10;8.82;;;6.10;55.90;;;;;;5095545;28;20099;-84
2022/04/14 00:41:29;;;;;;;17.08;8.65;;;6.10;56.00;;;;;;5096093;28;20448;-85
2022/04/14 00:43:55;;;;;;;17.05;9.77;;;6.00;56.00;;;;;;5095507;28;20472;-84
2022/04/14 00:46:21;;;;;;;15.45;8.27;;;6.00;56.20;;;;;;5096119;28;20020;-85
2022/04/14 00:48:49;;;;;;;19.10;8.27;;;6.00;56.30;;;;;;5095728;28;20031;-83
2022/04/14 00:51:15;;;;;;;14.75;8.43;;;5.90;56.20;;;;;;5095939;28;20088;-84
2022/04/14 00:53:40;;;;;;;12.70;8.18;;;5.90;56.10;;;;;;5096056;28;20103;-86
2022/04/14 00:56:07;;;;;;;16.15;9.10;;;5.90;56.10;;;;;;5095397;28;20040;-85
2022/04/14 00:58:34;;;;;;;17.55;7.90;;;5.90;56.20;;;;;;5077310;28;20036;-84
2022/04/14 01:01:00;;;;;;;17.48;8.40;;;5.90;56.40;;;;;;5073709;28;20033;-85
2022/04/14 01:03:26;;;;;;;14.68;8.00;;;5.90;56.30;;;;;;5075202;28;20370;-84
2022/04/14 01:05:53;;;;;;;18.98;10.32;;;5.80;56.40;;;;;;5092651;28;20069;-85
2022/04/14 01:08:19;;;;;;;16.00;7.72;;;5.80;56.30;;;;;;5077347;28;20488;-84
2022/04/14 01:10:49;;;;;;;15.73;8.10;;;5.80;56.30;;;;;;5094926;28;20026;-84
2022/04/14 01:13:18;;;;;;;16.45;8.55;;;5.80;56.30;;;;;;5095273;28;20046;-85
2022/04/14 01:15:48;;;;;;;14.45;7.75;;;5.80;56.30;;;;;;5076552;28;20028;-85
2022/04/14 01:18:14;;;;;;;17.58;9.20;;;5.80;56.40;;;;;;5095503;28;20024;-84
2022/04/14 01:20:41;;;;;;;16.50;7.85;;;5.80;56.60;;;;;;5094926;28;20377;-85
2022/04/14 01:23:09;;;;;;;14.48;9.05;;;5.70;56.60;;;;;;5077001;28;20054;-85
2022/04/14 01:25:36;;;;;;;16.08;9.00;;;5.70;56.60;;;;;;5076724;28;20020;-86
2022/04/14 01:28:02;;;;;;;18.38;9.07;;;5.70;56.60;;;;;;5094591;28;20047;-85
2022/04/14 01:30:29;;;;;;;13.13;8.88;;;5.70;56.60;;;;;;5094778;28;20411;-84
2022/04/14 01:32:55;;;;;;;18.50;9.70;;;5.70;56.60;;;;;;5095076;28;20377;-85
2022/04/14 01:35:22;;;;;;;16.73;9.50;;;5.70;56.60;;;;;;5094664;28;20388;-84
2022/04/14 01:37:50;;;;;;;15.13;8.73;;;5.70;56.70;;;;;;5077181;28;20135;-83
2022/04/14 01:40:15;;;;;;;16.60;9.18;;;5.60;56.70;;;;;;5094358;28;20081;-83
2022/04/14 01:42:41;;;;;;;16.83;9.98;;;5.60;57.30;;;;;;5094610;28;20020;-85
2022/04/14 01:45:10;;;;;;;17.98;8.77;;;5.50;56.70;;;;;;5094677;28;20431;-86
2022/04/14 01:47:44;;;;;;;13.32;9.07;;;5.50;57.10;;;;;;5076457;28;20427;-85
2022/04/14 01:50:12;;;;;;;12.93;8.80;;;5.40;57.00;;;;;;5075993;28;20016;-85
2022/04/14 01:52:39;;;;;;;13.40;9.18;;;5.40;57.10;;;;;;5076410;28;20054;-85
2022/04/14 01:55:06;;;;;;;16.27;9.05;;;5.30;57.50;;;;;;5094013;28;20073;-84
2022/04/14 01:57:32;;;;;;;14.15;8.55;;;5.30;57.90;;;;;;5076349;28;20020;-85
2022/04/14 01:59:59;;;;;;;15.30;9.23;;;5.10;58.00;;;;;;5094063;28;20493;-84
2022/04/14 02:02:24;;;;;;;17.77;9.60;;;5.00;58.20;;;;;;5094648;28;20028;-84
2022/04/14 02:04:51;;;;;;;14.80;8.70;;;5.00;58.60;;;;;;5075543;28;20032;-86
2022/04/14 02:07:17;;;;;;;17.02;9.40;;;5.00;58.70;;;;;;5094167;28;20023;-84
2022/04/14 02:09:44;;;;;;;15.90;9.20;;;5.00;58.90;;;;;;5075547;28;20381;-84
2022/04/14 02:12:11;;;;;;;14.02;9.45;;;4.90;59.20;;;;;;5094339;28;20027;-85
2022/04/14 02:14:37;;;;;;;18.27;10.30;;;4.90;59.10;;;;;;5075584;28;20020;-85
2022/04/14 02:17:03;;;;;;;20.25;9.38;;;4.90;59.20;;;;;;5093726;28;20035;-84
2022/04/14 02:19:29;;;;;;;15.40;9.23;;;4.90;59.50;;;;;;5075526;28;20020;-85
2022/04/14 02:21:58;;;;;;;15.25;9.35;;;4.90;59.60;;;;;;5075647;28;20389;-84
2022/04/14 02:24:24;;;;;;;20.42;10.20;;;4.90;59.50;;;;;;5093889;28;20024;-84
2022/04/14 02:26:49;;;;;;;20.45;11.68;;;4.90;59.60;;;;;;5093880;28;20019;-85
2022/04/14 02:29:15;;;;;;;19.05;10.55;;;4.80;59.50;;;;;;5075254;28;20020;-83
2022/04/14 02:31:41;;;;;;;16.48;9.85;;;4.90;59.70;;;;;;5093899;28;20024;-84
2022/04/14 02:34:09;;;;;;;17.00;10.23;;;4.90;59.90;;;;;;5093588;28;20059;-85
2022/04/14 02:36:34;;;;;;;17.50;10.82;;;4.80;59.90;;;;;;5075703;28;20043;-84
2022/04/14 02:39:00;;;;;;;16.60;9.70;;;4.70;60.00;;;;;;5074230;28;20489;-84
2022/04/14 02:41:25;;;;;;;17.80;10.23;;;4.70;60.50;;;;;;5075703;28;20020;-83
2022/04/14 02:43:51;;;;;;;16.98;10.05;;;4.70;61.20;;;;;;5075089;28;20437;-83
2022/04/14 02:46:17;;;;;;;16.48;9.27;;;4.60;60.80;;;;;;5093527;28;20399;-85
2022/04/14 02:48:42;;;;;;;13.60;9.40;;;4.60;60.70;;;;;;5074888;28;20044;-83
2022/04/14 02:51:08;;;;;;;20.05;11.13;;;4.60;60.80;;;;;;5093548;28;20016;-85
2022/04/14 02:53:34;;;;;;;17.05;9.57;;;4.60;61.30;;;;;;5093522;28;20077;-84
2022/04/14 02:56:00;;;;;;;16.83;9.45;;;4.50;61.00;;;;;;5092906;28;20028;-83
2022/04/14 02:58:26;;;;;;;16.73;10.07;;;4.60;60.80;;;;;;5093743;28;20106;-83
2022/04/14 03:00:52;;;;;;;20.60;9.90;;;4.60;60.10;;;;;;5074625;28;20051;-84
2022/04/14 03:03:19;;;;;;;17.20;9.65;;;4.60;60.10;;;;;;5093286;28;20107;-84
2022/04/14 03:05:45;;;;;;;16.23;10.25;;;4.60;59.60;;;;;;5093075;28;20052;-85
2022/04/14 03:08:10;;;;;;;14.85;8.80;;;4.70;59.50;;;;;;5093191;28;20016;-85
2022/04/14 03:10:36;;;;;;;19.20;9.73;;;4.70;59.40;;;;;;5092726;28;20110;-84
2022/04/14 03:13:02;;;;;;;17.00;10.00;;;4.70;59.80;;;;;;5092996;28;20039;-84
2022/04/14 03:15:27;;;;;;;18.60;10.52;;;4.70;60.10;;;;;;5074600;28;20036;-85
2022/04/14 03:17:53;;;;;;;16.23;10.40;;;4.70;59.90;;;;;;5093069;28;20023;-85
2022/04/14 03:20:19;;;;;;;18.77;10.45;;;4.70;60.20;;;;;;5092418;28;20492;-87
2022/04/14 03:22:45;;;;;;;19.17;9.20;;;4.60;60.10;;;;;;5092948;28;20024;-85
2022/04/14 03:25:13;;;;;;;17.15;9.50;;;4.60;60.10;;;;;;5074666;28;20020;-85
2022/04/14 03:27:39;;;;;;;17.55;10.27;;;4.60;60.50;;;;;;5092912;28;20017;-85
2022/04/14 03:30:06;;;;;;;14.35;8.98;;;4.50;61.10;;;;;;5092724;28;20028;-83
2022/04/14 03:32:32;;;;;;;19.13;9.45;;;4.50;61.70;;;;;;5075126;28;20086;-83
2022/04/14 03:35:04;;;;;;;15.40;9.63;;;4.40;61.90;;;;;;5092332;28;20034;-84
2022/04/14 03:37:30;;;;;;;15.38;9.23;;;4.30;61.40;;;;;;5092946;28;20032;-85
2022/04/14 03:39:56;;;;;;;17.50;9.60;;;4.30;62.40;;;;;;5092600;28;20032;-84
2022/04/14 03:42:21;;;;;;;18.05;10.13;;;4.20;63.00;;;;;;5093118;28;20031;-84
2022/04/14 03:44:47;;;;;;;13.95;9.02;;;4.10;63.60;;;;;;5074339;28;20017;-86
2022/04/14 03:47:12;;;;;;;19.88;9.52;;;4.10;63.50;;;;;;5092865;28;20385;-85
2022/04/14 03:49:38;;;;;;;16.15;8.93;;;4.00;63.40;;;;;;5074264;28;20025;-85
2022/04/14 03:52:04;;;;;;;15.23;9.35;;;3.90;64.30;;;;;;5078821;28;20023;-86
2022/04/14 03:54:30;;;;;;;14.15;9.85;;;3.80;65.40;;;;;;5096458;28;20496;-84
2022/04/14 03:56:55;;;;;;;15.60;9.63;;;3.70;66.20;;;;;;5096659;28;20123;-84
2022/04/14 03:59:21;;;;;;;20.65;10.10;;;3.60;66.50;;;;;;5096237;28;20134;-85
2022/04/14 04:01:47;;;;;;;18.95;9.40;;;3.60;67.00;;;;;;5096648;28;20020;-84
2022/04/14 04:04:12;;;;;;;20.25;9.10;;;3.60;67.00;;;;;;5096327;28;20060;-84
2022/04/14 04:06:38;;;;;;;16.35;10.00;;;3.50;67.60;;;;;;5096773;28;20032;-85
2022/04/14 04:09:04;;;;;;;15.65;9.38;;;3.50;67.60;;;;;;5096489;28;20024;-85
2022/04/14 04:11:29;;;;;;;19.83;10.77;;;3.40;68.20;;;;;;5096606;28;20024;-84
2022/04/14 04:13:55;;;;;;;18.35;10.43;;;3.40;68.70;;;;;;5077951;28;20031;-85
2022/04/14 04:16:21;;;;;;;16.75;9.50;;;3.30;69.60;;;;;;5096515;28;20032;-84
2022/04/14 04:18:46;;;;;;;18.77;9.38;;;3.30;70.30;;;;;;5077716;28;20032;-83
2022/04/14 04:21:12;;;;;;;15.13;9.00;;;3.30;70.80;;;;;;5096430;28;20024;-84
2022/04/14 04:23:38;;;;;;;16.50;9.57;;;3.30;71.00;;;;;;5096495;28;20024;-84
2022/04/14 04:26:03;;;;;;;16.40;9.52;;;3.30;71.00;;;;;;5077627;28;20023;-85
2022/04/14 04:28:30;;;;;;;18.27;8.65;;;3.40;71.20;;;;;;5096120;28;20020;-85
2022/04/14 04:30:56;;;;;;;19.42;8.70;;;3.40;71.80;;;;;;5095737;28;20024;-85
2022/04/14 04:33:22;;;;;;;15.85;9.75;;;3.40;71.90;;;;;;5096234;28;20461;-83
2022/04/14 04:35:50;;;;;;;20.02;10.00;;;3.40;72.70;;;;;;5095453;28;20043;-84
2022/04/14 04:38:15;;;;;;;22.98;10.23;;;3.40;73.00;;;;;;5077943;28;20030;-83
2022/04/14 04:40:41;;;;;;;19.92;10.68;;;3.50;72.90;;;;;;5078909;28;20469;-85
2022/04/14 04:43:08;;;;;;;13.02;8.68;;;3.60;73.10;;;;;;5077794;28;20030;-84
2022/04/14 04:45:34;;;;;;;14.65;9.13;;;3.70;73.30;;;;;;5095381;28;20020;-85
2022/04/14 04:48:02;;;;;;;14.77;8.00;;;3.80;72.60;;;;;;5095679;28;20031;-85
2022/04/14 04:50:28;;;;;;;15.15;9.60;;;3.80;72.60;;;;;;5095526;28;20066;-85
2022/04/14 04:52:54;;;;;;;19.35;8.63;;;3.90;73.50;;;;;;5077513;28;20028;-84
2022/04/14 04:55:19;;;;;;;21.75;10.63;;;4.10;72.40;;;;;;5095493;28;20027;-86
2022/04/14 04:57:45;;;;;;;19.85;8.73;;;4.10;72.50;;;;;;5077559;28;20028;-85
2022/04/14 05:00:11;;;;;;;17.85;8.95;;;4.30;72.90;;;;;;5095279;28;20127;-85
2022/04/14 05:02:37;;;;;;;18.10;8.65;;;4.40;72.60;;;;;;5059917;28;20036;-85
2022/04/14 05:05:03;;;;;;;17.80;10.60;;;4.60;72.20;;;;;;5094973;28;20020;-84
2022/04/14 05:07:29;;;;;;;17.60;8.98;;;4.70;72.40;;;;;;5095435;28;20016;-85
2022/04/14 05:09:55;;;;;;;14.63;8.50;;;4.80;71.90;;;;;;5077206;28;20023;-84
2022/04/14 05:12:21;;;;;;;15.88;8.57;;;4.90;71.60;;;;;;5095608;28;20028;-84
2022/04/14 05:14:46;;;;;;;16.58;10.02;;;5.00;71.40;;;;;;5094797;28;20024;-85
2022/04/14 05:17:12;;;;;;;17.13;10.35;;;5.10;71.30;;;;;;5085896;28;20035;-84
2022/04/14 05:19:37;;;;;;;16.55;9.60;;;5.20;70.90;;;;;;5094885;28;20024;-86
2022/04/14 05:22:04;;;;;;;18.85;9.30;;;5.40;70.70;;;;;;5095205;28;20016;-86
2022/04/14 05:24:30;;;;;;;13.07;8.95;;;5.60;68.40;;;;;;5094310;28;20073;-85
2022/04/14 05:26:56;;;;;;;15.20;9.32;;;5.80;67.50;;;;;;5084134;28;20023;-86
2022/04/14 05:29:21;;;;;;;14.85;9.30;;;5.90;67.50;;;;;;5076967;28;20032;-84
2022/04/14 05:31:47;;;;;;;16.60;10.05;;;6.10;66.80;;;;;;5095258;28;20020;-83
2022/04/14 05:34:13;;;;;;;17.25;10.32;;;6.30;66.20;;;;;;5076527;28;20024;-85
2022/04/14 05:36:38;;;;;;;15.48;9.05;;;6.40;65.30;;;;;;5094883;28;20072;-84
2022/04/14 05:39:04;;;;;;;16.73;9.43;;;6.60;64.10;;;;;;5094621;28;20035;-83
2022/04/14 05:41:29;;;;;;;15.73;9.98;;;6.80;62.10;;;;;;5094958;28;20017;-85
2022/04/14 05:43:56;;;;;;;15.10;9.07;;;7.00;60.70;;;;;;5094267;28;20077;-86
2022/04/14 05:46:22;;;;;;;15.75;9.10;;;7.20;60.00;;;;;;5094764;28;20035;-83
2022/04/14 05:48:48;;;;;;;13.57;8.52;;;7.40;59.40;;;;;;5076465;28;20028;-83
2022/04/14 05:51:14;;;;;;;13.00;9.10;;;7.50;58.90;;;;;;5094628;28;20020;-84
2022/04/14 05:53:40;;;;;;;14.32;9.48;;;7.70;58.30;;;;;;5094379;28;20477;-84
2022/04/14 05:56:06;;;;;;;14.10;9.70;;;7.90;58.10;;;;;;5093831;28;20036;-85
2022/04/14 05:58:31;;;;;;;16.10;10.02;;;8.10;57.60;;;;;;5093942;28;20043;-85
2022/04/14 06:00:57;;;;;;;15.48;10.13;;;8.30;56.40;;;;;;5093880;28;20389;-83
2022/04/14 06:03:24;;;;;;;16.40;10.70;;;8.40;56.00;;;;;;5073166;28;20028;-85
2022/04/14 06:05:49;;;;;;;18.75;10.77;;;8.60;56.10;;;;;;5091735;28;20479;-83
2022/04/14 06:08:15;;;;;;;18.90;10.40;;;8.70;56.40;;;;;;5094511;28;20040;-85
2022/04/14 06:10:41;;;;;;;18.40;12.60;;;8.90;57.10;;;;;;5093070;28;20075;-83
2022/04/14 06:13:07;;;;;;;19.70;12.48;;;9.10;56.40;;;;;;5074495;28;20036;-84
2022/04/14 06:15:32;;;;;;;19.63;12.38;;;9.30;56.30;;;;;;5092414;28;20390;-84
2022/04/14 06:17:58;;;;;;;20.63;12.13;;;9.50;56.10;;;;;;5091575;28;20074;-84
2022/04/14 06:20:25;;;;;;;24.20;11.40;;;9.60;56.40;;;;;;5092094;28;20012;-84
2022/04/14 06:22:52;;;;;;;18.58;9.68;;;9.90;56.60;;;;;;5090202;28;20028;-83
2022/04/14 06:25:22;;;;;;;16.00;10.90;;;10.10;56.40;;;;;;5091155;28;20017;-84
2022/04/14 06:27:49;;;;;;;18.10;11.13;;;10.30;55.70;;;;;;5091230;28;20101;-85
2022/04/14 06:30:16;;;;;;;18.05;9.75;;;10.50;55.40;;;;;;5091420;28;20492;-83
2022/04/14 06:32:42;;;;;;;17.98;10.45;;;10.70;55.30;;;;;;5070585;28;20032;-85
2022/04/14 06:35:13;;;;;;;20.70;10.20;;;10.80;55.00;;;;;;5089430;28;20101;-85
2022/04/14 06:37:39;;;;;;;15.88;10.32;;;11.00;54.60;;;;;;5070276;28;20131;-85
2022/04/14 06:40:06;;;;;;;15.65;10.15;;;11.10;53.90;;;;;;5090669;28;20111;-85
2022/04/14 06:42:32;;;;;;;19.30;10.80;;;11.30;53.70;;;;;;5072401;28;20028;-84
2022/04/14 06:44:59;;;;;;;16.00;9.52;;;11.50;53.70;;;;;;5090105;28;20028;-85
2022/04/14 06:47:28;;;;;;;13.88;9.27;;;11.60;53.30;;;;;;5086897;28;20048;-83
2022/04/14 06:49:54;;;;;;;19.33;10.32;;;11.80;53.10;;;;;;5092497;28;20020;-84
2022/04/14 06:52:20;;;;;;;17.27;9.80;;;12.00;52.90;;;;;;5092387;28;20047;-85
2022/04/14 06:54:46;;;;;;;18.92;9.88;;;12.20;52.50;;;;;;5074079;28;20023;-81
2022/04/14 06:57:11;;;;;;;14.38;9.27;;;12.40;52.30;;;;;;5092144;28;20039;-80
2022/04/14 06:59:38;;;;;;;22.00;11.35;;;12.60;52.50;;;;;;5091868;28;20048;-81
2022/04/14 07:02:04;;;;;;;23.52;11.32;;;12.80;51.30;;;;;;5070883;28;20090;-82
2022/04/14 07:04:30;;;;;;;19.13;10.90;;;13.00;51.10;;;;;;5071967;28;20016;-83
2022/04/14 07:06:56;;;;;;;20.10;12.10;;;13.20;50.50;;;;;;5054045;28;20034;-82
2022/04/14 07:09:22;;;;;;;18.77;11.32;;;13.30;50.60;;;;;;5054277;28;20031;-82
2022/04/14 07:11:47;;;;;;;22.17;11.88;;;13.40;50.20;;;;;;5072026;28;20462;-83
2022/04/14 07:14:16;;;;;;;18.40;12.38;;;13.50;49.30;;;;;;5072068;28;20040;-83
2022/04/14 07:16:42;;;;;;;16.27;11.30;;;13.60;49.10;;;;;;5070816;28;20060;-84
2022/04/14 07:19:08;;;;;;;18.42;11.10;;;13.80;49.50;;;;;;5054335;28;20040;-82
2022/04/14 07:21:33;;;;;;;15.65;10.38;;;14.00;48.90;;;;;;5072042;28;20445;-82
2022/04/14 07:23:59;;;;;;;18.27;10.77;;;14.10;48.40;;;;;;5053218;28;20482;-82
2022/04/14 07:26:24;;;;;;;17.42;10.60;;;14.20;48.30;;;;;;5071210;28;20020;-84
2022/04/14 07:28:50;;;;;;;18.30;10.18;;;14.40;48.20;;;;;;5071205;28;20068;-84
2022/04/14 07:31:16;;;;;;;15.32;10.10;;;14.50;48.30;;;;;;5053523;28;20020;-82
2022/04/14 07:33:41;;;;;;;15.80;9.38;;;14.70;48.70;;;;;;5071478;28;20094;-83
2022/04/14 07:36:07;;;;;;;15.68;8.60;;;14.90;48.00;;;;;;5071677;28;20136;-84
2022/04/14 07:38:33;;;;;;;13.20;8.45;;;15.00;47.10;;;;;;5071527;28;20036;-82
2022/04/14 07:41:00;;;;;;;14.90;8.13;;;15.10;47.20;;;;;;5071821;28;20078;-84
2022/04/14 07:43:26;;;;;;;15.20;8.27;;;15.20;46.50;;;;;;5054114;28;20036;-82
2022/04/14 07:45:52;;;;;;;13.23;8.15;;;15.30;46.10;;;;;;5070834;28;20052;-82
2022/04/14 07:48:21;;;;;;;13.88;8.70;;;15.40;46.10;;;;;;5071082;28;20071;-82
2022/04/14 07:50:47;;;;;;;11.93;8.20;;;15.50;46.10;;;;;;5071031;28;20016;-82
2022/04/14 07:53:13;;;;;;;11.95;7.80;;;15.70;46.60;;;;;;5071900;28;20440;-84
2022/04/14 07:55:39;;;;;;;12.50;7.63;;;15.80;45.30;;;;;;5071285;28;20028;-84
2022/04/14 07:58:09;;;;;;;14.07;7.75;;;15.70;45.10;;;;;;5071684;28;20366;-84
2022/04/14 08:00:36;;;;;;;10.98;7.35;;;15.80;44.50;;;;;;5070301;28;20055;-82
2022/04/14 08:03:03;;;;;;;15.85;7.85;;;15.90;44.50;;;;;;5070193;28;20051;-84
2022/04/14 08:05:34;;;;;;;15.93;8.40;;;16.00;44.00;;;;;;5071324;28;20021;-85
2022/04/14 08:08:01;;;;;;;11.48;7.63;;;16.00;43.70;;;;;;5071393;28;20539;-83
2022/04/14 08:10:26;;;;;;;14.80;8.68;;;16.10;44.10;;;;;;5071110;28;20078;-83
2022/04/14 08:12:53;;;;;;;12.50;8.25;;;16.30;44.50;;;;;;5058242;28;20021;-84
2022/04/14 08:15:18;;;;;;;15.88;8.20;;;16.40;43.40;;;;;;5070585;28;20024;-83
2022/04/14 08:17:45;;;;;;;14.45;8.40;;;16.60;44.60;;;;;;5069750;28;20059;-83
2022/04/14 08:20:14;;;;;;;18.05;10.02;;;16.70;44.10;;;;;;5067968;28;20076;-83
2022/04/14 08:22:55;;;;;;;20.45;9.05;;;16.80;43.60;;;;;;5068093;28;20028;-84
2022/04/14 08:25:27;;;;;;;15.68;8.55;;;17.00;43.90;;;;;;5068728;28;20489;-84
2022/04/14 08:27:53;;;;;;;14.73;8.18;;;17.00;42.70;;;;;;5068217;28;20436;-83
2022/04/14 08:30:21;;;;;;;16.25;9.05;;;17.10;42.20;;;;;;5067560;28;20044;-84
2022/04/14 08:32:48;;;;;;;12.27;8.48;;;17.10;42.00;;;;;;5048554;28;20067;-83
2022/04/14 08:35:14;;;;;;;13.57;8.85;;;17.10;42.00;;;;;;5068094;28;20089;-83
2022/04/14 08:37:41;;;;;;;15.32;9.10;;;17.20;41.60;;;;;;5069435;28;20028;-83
2022/04/14 08:40:10;;;;;;;17.02;9.18;;;17.30;42.00;;;;;;5071711;28;20040;-83
2022/04/14 08:42:40;;;;;;;14.43;7.85;;;17.30;41.50;;;;;;5072445;28;20112;-84
2022/04/14 08:45:12;;;;;;;9.57;6.28;;;17.40;42.20;;;;;;5056648;28;20036;-83
2022/04/14 08:47:40;;;;;;;11.88;6.35;;;17.50;41.30;;;;;;5056593;28;20028;-85
2022/04/14 08:50:10;;;;;;;10.90;6.72;;;17.50;40.30;;;;;;5057112;28;20044;-85
2022/04/14 08:52:37;;;;;;;13.07;7.25;;;17.50;40.40;;;;;;5056675;28;20017;-83
2022/04/14 08:55:08;;;;;;;11.82;8.45;;;17.60;39.50;;;;;;5074431;28;20041;-85
2022/04/14 08:57:35;;;;;;;11.85;6.85;;;17.60;39.50;;;;;;5074500;28;20032;-85
2022/04/14 09:00:03;;;;;;;8.50;6.53;;;17.70;39.30;;;;;;5073416;28;20040;-85
2022/04/14 09:02:31;;;;;;;9.20;6.13;;;17.70;39.50;;;;;;5056385;28;20024;-85
2022/04/14 09:04:57;;;;;;;12.38;7.15;;;17.80;39.90;;;;;;5056118;28;20105;-85
2022/04/14 09:07:22;;;;;;;8.68;6.10;;;18.00;40.40;;;;;;5074535;28;20025;-84
2022/04/14 09:09:48;;;;;;;8.68;6.72;;;18.00;39.20;;;;;;5074195;28;20036;-84
2022/04/14 09:12:14;;;;;;;9.02;5.90;;;18.20;38.90;;;;;;5056760;28;20028;-85
2022/04/14 09:14:40;;;;;;;11.88;6.93;;;18.20;38.60;;;;;;5073137;28;20482;-83
2022/04/14 09:17:09;;;;;;;11.90;6.50;;;18.30;38.90;;;;;;5074213;28;20052;-84
2022/04/14 09:19:36;;;;;;;7.75;5.75;;;18.30;37.80;;;;;;5074124;28;20029;-84
2022/04/14 09:22:04;;;;;;;9.98;6.50;;;18.40;38.30;;;;;;5074119;28;20048;-84
2022/04/14 09:24:39;;;;;;;10.60;5.55;;;18.40;37.80;;;;;;5073751;28;20090;-84
2022/04/14 09:27:06;;;;;;;10.43;6.68;;;18.60;38.00;;;;;;5074359;28;20028;-84
2022/04/14 09:29:32;;;;;;;8.80;5.18;;;18.70;38.00;;;;;;5072400;28;20036;-84
2022/04/14 09:31:57;;;;;;;9.45;5.50;;;18.70;37.90;;;;;;5073886;28;20020;-84
2022/04/14 09:34:51;;;;;;;10.57;5.78;;;18.90;38.40;;;;;;5073742;28;20063;-84
2022/04/14 09:37:18;;;;;;;8.70;5.05;;;19.10;38.30;;;;;;5073991;28;20041;-84
2022/04/14 09:39:55;;;;;;;9.57;6.07;;;19.10;37.60;;;;;;5073573;28;20096;-84
2022/04/14 09:42:22;;;;;;;8.38;5.65;;;19.20;36.80;;;;;;5074746;28;20021;-84
2022/04/14 09:44:49;;;;;;;6.82;4.68;;;19.10;35.70;;;;;;5073416;28;20086;-84
2022/04/14 09:47:22;;;;;;;7.10;4.90;;;19.10;35.80;;;;;;5074354;28;20029;-84
2022/04/14 09:49:48;;;;;;;8.55;4.10;;;19.20;35.80;;;;;;5073078;28;20100;-85
2022/04/14 09:52:13;;;;;;;6.70;4.97;;;19.20;35.00;;;;;;5074775;28;20418;-84
2022/04/14 09:54:40;;;;;;;7.65;4.80;;;19.20;35.30;;;;;;5074489;28;20066;-84
2022/04/14 09:57:10;;;;;;;7.60;4.70;;;19.20;35.60;;;;;;5074518;28;20036;-84
2022/04/14 09:59:37;;;;;;;10.23;5.50;;;19.30;35.90;;;;;;5073681;28;20048;-85
2022/04/14 10:02:17;;;;;;;5.72;4.68;;;19.30;35.60;;;;;;5074418;28;20082;-84
2022/04/14 10:04:44;;;;;;;6.25;4.40;;;19.60;36.30;;;;;;5073927;28;20473;-84
2022/04/14 10:07:16;;;;;;;7.65;5.03;;;19.70;36.50;;;;;;5056211;28;20021;-85
2022/04/14 10:09:48;;;;;;;5.05;4.25;;;19.80;35.50;;;;;;5056040;28;20074;-83
2022/04/14 10:12:19;;;;;;;7.50;4.45;;;19.90;36.10;;;;;;5074222;28;20025;-85
2022/04/14 10:15:04;;;;;;;4.47;3.83;;;20.00;36.30;;;;;;5056047;28;20017;-85
2022/04/14 10:17:32;;;;;;;8.40;4.47;;;20.00;35.30;;;;;;5073958;28;20486;-85
2022/04/14 10:19:58;;;;;;;8.05;5.55;;;20.00;35.30;;;;;;5073442;28;20430;-85
2022/04/14 10:22:26;;;;;;;6.75;4.80;;;20.20;35.90;;;;;;5074031;28;20059;-85
2022/04/14 10:24:56;;;;;;;7.97;4.88;;;20.20;35.20;;;;;;5073493;28;20025;-85
2022/04/14 10:27:22;;;;;;;7.03;5.00;;;20.20;34.90;;;;;;5056120;28;20115;-85
2022/04/14 10:29:49;;;;;;;8.60;5.28;;;20.30;35.40;;;;;;5055486;28;20052;-84
2022/04/14 10:32:14;;;;;;;8.38;5.10;;;20.40;35.70;;;;;;5073927;28;20024;-85
2022/04/14 10:34:40;;;;;;;6.82;4.95;;;20.40;35.70;;;;;;5073511;28;20489;-84
2022/04/14 10:37:13;;;;;;;9.45;4.30;;;20.50;34.90;;;;;;5073596;28;20390;-85
2022/04/14 10:39:50;;;;;;;10.85;4.65;;;20.50;34.10;;;;;;5057239;28;20047;-84
2022/04/14 10:42:23;;;;;;;6.75;4.35;;;20.40;33.50;;;;;;5048662;28;20032;-82
2022/04/14 10:44:52;;;;;;;7.45;4.55;;;20.30;33.90;;;;;;5060612;28;20028;-84
2022/04/14 10:47:43;;;;;;;10.02;5.18;;;20.30;33.60;;;;;;5071065;28;20043;-83
2022/04/14 10:50:34;;;;;;;10.98;5.57;;;20.50;35.20;;;;;;5066620;28;20414;-83
2022/04/14 10:53:13;;;;;;;7.95;4.90;;;20.70;35.40;;;;;;5071686;28;20029;-83
2022/04/14 10:55:44;;;;;;;9.52;4.35;;;20.70;33.70;;;;;;5057879;28;20113;-82
2022/04/14 10:58:28;;;;;;;6.30;3.88;;;20.80;33.20;;;;;;5071752;28;20036;-83
2022/04/14 11:00:55;;;;;;;8.70;5.30;;;20.80;32.60;;;;;;5069982;28;20115;-83
2022/04/14 11:03:48;;;;;;;11.85;4.47;;;20.90;33.10;;;;;;5053068;28;20056;-83
2022/04/14 11:06:42;;;;;;;6.32;4.00;;;20.90;33.00;;;;;;5072136;28;20028;-83
2022/04/14 11:09:28;;;;;;;6.80;4.55;;;21.00;32.70;;;;;;5054149;28;20028;-83
2022/04/14 11:12:01;;;;;;;7.78;3.88;;;21.10;33.10;;;;;;5053654;28;20025;-83
2022/04/14 11:14:26;;;;;;;9.45;4.90;;;21.20;32.80;;;;;;5072023;28;20036;-83
2022/04/14 11:16:52;;;;;;;6.63;4.95;;;21.20;34.70;;;;;;5071211;28;20501;-83
2022/04/14 11:19:26;;;;;;;8.00;5.05;;;21.20;33.90;;;;;;5071391;28;20064;-83
2022/04/14 11:22:11;;;;;;;6.43;4.55;;;21.30;33.70;;;;;;5065244;28;20024;-83
2022/04/14 11:24:36;;;;;;;5.60;3.88;;;21.40;33.50;;;;;;5050152;28;20119;-83
2022/04/14 11:27:14;;;;;;;6.32;4.30;;;21.40;33.00;;;;;;5071140;28;20095;-83
2022/04/14 11:29:57;;;;;;;8.90;5.28;;;21.50;33.70;;;;;;5070137;28;20036;-83
2022/04/14 11:32:42;;;;;;;6.50;4.57;;;21.50;33.40;;;;;;5049204;28;20071;-83
2022/04/14 11:35:16;;;;;;;7.18;4.38;;;21.60;32.80;;;;;;5050178;28;20387;-83
2022/04/14 11:37:43;;;;;;;7.53;4.35;;;21.50;31.50;;;;;;5051558;28;20368;-83
2022/04/14 11:40:22;;;;;;;4.95;4.40;;;21.60;31.90;;;;;;5051647;28;20099;-82
2022/04/14 11:42:48;;;;;;;6.40;4.63;;;21.70;32.60;;;;;;5049817;28;20489;-83
2022/04/14 11:45:19;;;;;;;8.18;5.57;;;21.60;31.60;;;;;;5050530;28;20037;-83
2022/04/14 11:47:46;;;;;;;4.57;3.53;;;21.50;31.00;;;;;;5051060;28;20108;-82
2022/04/14 11:50:12;;;;;;;6.93;3.85;;;21.60;32.00;;;;;;5058745;28;20133;-83
2022/04/14 11:52:40;;;;;;;6.38;3.97;;;21.70;32.00;;;;;;5071608;28;20492;-83
2022/04/14 11:55:06;;;;;;;7.32;3.88;;;21.80;33.20;;;;;;5071480;28;20440;-83
2022/04/14 11:57:37;;;;;;;6.35;4.03;;;21.80;30.80;;;;;;5071607;28;20040;-82
2022/04/14 12:00:10;;;;;;;7.40;5.07;;;21.70;30.80;;;;;;5071066;28;20481;-83
2022/04/14 12:02:37;;;;;;;10.00;6.07;;;21.70;30.70;;;;;;5070690;28;20112;-83
2022/04/14 12:05:03;;;;;;;8.48;4.03;;;21.70;30.90;;;;;;5071240;28;20052;-83
2022/04/14 12:07:36;;;;;;;6.82;4.53;;;21.70;31.50;;;;;;5071344;28;20048;-83
2022/04/14 12:10:08;;;;;;;7.68;4.65;;;21.70;31.60;;;;;;5072222;28;20382;-83
2022/04/14 12:12:37;;;;;;;5.13;3.63;;;21.70;30.60;;;;;;5057704;28;20457;-84
2022/04/14 12:15:04;;;;;;;6.68;3.67;;;21.70;30.40;;;;;;5075916;28;20097;-84
2022/04/14 12:17:33;;;;;;;5.53;3.60;;;21.60;30.40;;;;;;5076097;28;20043;-84
2022/04/14 12:20:00;;;;;;;6.07;3.45;;;21.80;31.30;;;;;;5075753;28;20025;-83
2022/04/14 12:22:31;;;;;;;3.92;3.08;;;21.80;30.30;;;;;;5070127;28;20025;-84
2022/04/14 12:25:06;;;;;;;5.13;3.28;;;21.90;29.70;;;;;;5064121;28;20021;-84
2022/04/14 12:27:38;;;;;;;5.88;4.13;;;22.00;30.70;;;;;;5053529;28;20094;-82
2022/04/14 12:30:14;;;;;;;8.07;3.55;;;22.00;30.10;;;;;;5065825;28;20114;-83
2022/04/14 12:32:40;;;;;;;5.85;3.33;;;21.90;29.50;;;;;;5056867;28;20432;-83
2022/04/14 12:35:10;;;;;;;6.10;3.15;;;21.80;29.50;;;;;;5074232;28;20089;-84
2022/04/14 12:37:41;;;;;;;4.05;3.40;;;21.80;29.40;;;;;;5056824;28;20048;-83
2022/04/14 12:40:13;;;;;;;4.32;3.63;;;21.80;29.60;;;;;;5073863;28;20031;-85
2022/04/14 12:42:39;;;;;;;3.22;2.90;;;21.80;29.30;;;;;;5074324;28;20107;-82
2022/04/14 12:45:13;;;;;;;6.03;3.30;;;21.90;30.10;;;;;;5074408;28;20024;-83